createdAt,value
2022-12-03T00:02:55.678Z,10.90
2022-12-03T00:05:52.617Z,7.80
2022-12-03T00:08:49.489Z,9.48
2022-12-03T00:11:46.383Z,8.98
2022-12-03T00:14:52.476Z,9.00
2022-12-03T00:17:49.337Z,7.65
2022-12-03T00:20:46.248Z,8.88
2022-12-03T00:23:43.064Z,7.38
2022-12-03T00:26:39.950Z,9.60
2022-12-03T00:29:36.788Z,8.90
2022-12-03T00:32:33.633Z,11.52
2022-12-03T00:35:30.485Z,8.32
2022-12-03T00:38:27.378Z,9.18
2022-12-03T00:41:24.282Z,10.52
2022-12-03T00:44:21.102Z,10.05
2022-12-03T00:47:17.945Z,10.55
2022-12-03T00:50:14.915Z,10.48
2022-12-03T00:53:11.743Z,8.93
2022-12-03T00:56:08.903Z,10.02
2022-12-03T00:59:05.722Z,11.27
2022-12-03T01:02:02.755Z,10.00
2022-12-03T01:04:59.739Z,10.10
2022-12-03T01:07:56.828Z,8.85
2022-12-03T01:10:53.756Z,13.38
2022-12-03T01:13:50.557Z,12.15
2022-12-03T01:16:48.259Z,12.50
2022-12-03T01:19:48.425Z,11.50
2022-12-03T01:22:45.564Z,10.27
2022-12-03T01:25:42.420Z,14.30
2022-12-03T01:28:39.345Z,12.90
2022-12-03T01:31:54.881Z,13.52
2022-12-03T01:34:56.112Z,13.90
2022-12-03T01:37:53.292Z,11.82
2022-12-03T01:40:50.524Z,12.93
2022-12-03T01:43:48.679Z,13.02
2022-12-03T01:46:46.691Z,14.18
2022-12-03T01:50:31.576Z,12.32
2022-12-03T01:53:28.470Z,13.95
2022-12-03T01:56:25.451Z,16.20
2022-12-03T01:59:34.454Z,14.65
2022-12-03T02:02:32.171Z,15.43
2022-12-03T02:05:32.268Z,17.13
2022-12-03T02:08:35.773Z,14.68
2022-12-03T02:11:37.215Z,15.07
2022-12-03T02:14:34.076Z,14.38
2022-12-03T02:17:31.487Z,15.40
2022-12-03T02:20:28.752Z,15.18
2022-12-03T02:23:39.969Z,15.15
2022-12-03T02:26:36.867Z,17.13
2022-12-03T02:29:33.722Z,15.05
2022-12-03T02:32:30.587Z,14.88
2022-12-03T02:35:38.288Z,20.33
2022-12-03T02:38:35.708Z,15.63
2022-12-03T02:41:51.503Z,19.10
2022-12-03T02:44:48.380Z,17.83
2022-12-03T02:48:08.486Z,19.33
2022-12-03T02:51:10.393Z,17.73
2022-12-03T02:54:07.303Z,18.42
2022-12-03T02:57:04.653Z,22.63
2022-12-03T03:00:01.661Z,24.00
2022-12-03T03:02:59.229Z,19.35
2022-12-03T03:05:56.982Z,19.45
2022-12-03T03:08:53.970Z,21.10
2022-12-03T03:11:50.803Z,18.80
2022-12-03T03:14:47.706Z,21.33
2022-12-03T03:17:44.563Z,25.13
2022-12-03T03:20:42.460Z,21.08
2022-12-03T03:23:39.287Z,22.23
2022-12-03T03:26:36.354Z,23.05
2022-12-03T03:29:34.740Z,21.27
2022-12-03T03:32:31.786Z,19.02
2022-12-03T03:35:28.974Z,20.08
2022-12-03T03:38:27.049Z,20.17
2022-12-03T03:41:27.903Z,20.95
2022-12-03T03:44:24.791Z,20.70
2022-12-03T03:47:23.693Z,21.55
2022-12-03T03:50:20.765Z,24.75
2022-12-03T03:53:18.487Z,20.63
2022-12-03T03:56:18.506Z,16.42
2022-12-03T03:59:15.865Z,20.92
2022-12-03T04:02:28.262Z,19.27
2022-12-03T04:05:25.383Z,19.02
2022-12-03T04:08:22.320Z,21.30
2022-12-03T04:11:37.641Z,16.95
2022-12-03T04:14:34.453Z,19.50
2022-12-03T04:17:31.468Z,19.58
2022-12-03T04:20:28.304Z,18.90
2022-12-03T04:23:30.780Z,23.33
2022-12-03T04:26:46.860Z,18.30
2022-12-03T04:29:43.770Z,23.15
2022-12-03T04:32:59.226Z,22.40
2022-12-03T04:35:56.147Z,19.05
2022-12-03T04:38:53.415Z,21.60
2022-12-03T04:41:50.534Z,27.17
2022-12-03T04:44:47.587Z,25.05
2022-12-03T04:47:44.585Z,25.42
2022-12-03T04:50:41.687Z,22.05
2022-12-03T04:53:43.253Z,25.15
2022-12-03T04:56:43.033Z,24.52
2022-12-03T04:59:40.571Z,26.52
2022-12-03T05:02:37.478Z,26.35
2022-12-03T05:05:34.424Z,23.98
2022-12-03T05:08:31.280Z,25.92
2022-12-03T05:11:28.434Z,22.65
2022-12-03T05:14:25.322Z,27.90
2022-12-03T05:17:22.199Z,24.70
2022-12-03T05:20:37.590Z,24.48
2022-12-03T05:23:34.665Z,27.27
2022-12-03T05:26:31.536Z,25.42
2022-12-03T05:29:28.510Z,25.83
2022-12-03T05:32:25.385Z,27.00
2022-12-03T05:35:22.314Z,24.67
2022-12-03T05:38:19.344Z,27.20
2022-12-03T05:41:34.789Z,27.38
2022-12-03T05:44:31.784Z,26.80
2022-12-03T05:47:28.629Z,26.67
2022-12-03T05:50:30.581Z,20.75
2022-12-03T05:53:27.405Z,21.60
2022-12-03T05:56:24.322Z,25.58
2022-12-03T05:59:21.271Z,23.20
2022-12-03T06:02:18.219Z,24.23
2022-12-03T06:05:16.907Z,24.30
2022-12-03T06:08:13.798Z,25.33
2022-12-03T06:11:10.669Z,23.52
2022-12-03T06:14:07.897Z,25.67
2022-12-03T06:17:05.053Z,24.92
2022-12-03T06:20:02.030Z,22.02
2022-12-03T06:22:58.879Z,24.50
2022-12-03T06:25:55.755Z,22.77
2022-12-03T06:29:02.890Z,25.02
2022-12-03T06:31:59.757Z,29.60
2022-12-03T06:34:56.689Z,27.55
2022-12-03T06:37:53.748Z,28.20
2022-12-03T06:40:50.580Z,29.85
2022-12-03T06:43:47.421Z,25.33
2022-12-03T06:46:44.422Z,24.38
2022-12-03T06:49:41.304Z,26.92
2022-12-03T06:52:38.168Z,23.98
2022-12-03T06:55:35.013Z,23.50
2022-12-03T06:58:31.838Z,23.40
2022-12-03T07:01:29.530Z,36.97
2022-12-03T07:04:26.450Z,32.92
2022-12-03T07:07:23.302Z,28.52
2022-12-03T07:10:20.174Z,26.00
2022-12-03T07:13:17.157Z,28.13
2022-12-03T07:16:14.016Z,28.95
2022-12-03T07:19:11.475Z,27.63
2022-12-03T07:22:08.666Z,30.10
2022-12-03T07:25:06.482Z,28.83
2022-12-03T07:28:03.616Z,29.98
2022-12-03T07:31:00.946Z,36.47
2022-12-03T07:33:57.838Z,24.83
2022-12-03T07:36:55.207Z,28.25
2022-12-03T07:39:52.606Z,31.55
2022-12-03T07:42:49.547Z,34.67
2022-12-03T07:45:46.508Z,27.95
2022-12-03T07:48:43.394Z,30.42
2022-12-03T07:51:41.032Z,36.95
2022-12-03T07:54:37.909Z,34.65
2022-12-03T07:57:34.825Z,32.67
2022-12-03T08:00:31.999Z,36.22
2022-12-03T08:03:28.926Z,38.20
2022-12-03T08:06:26.514Z,38.03
2022-12-03T08:09:23.325Z,36.83
2022-12-03T08:12:42.031Z,37.65
2022-12-03T08:15:39.774Z,34.88
2022-12-03T08:18:36.737Z,33.17
2022-12-03T08:21:36.480Z,47.70
2022-12-03T08:24:33.423Z,33.23
2022-12-03T08:27:30.316Z,30.38
2022-12-03T08:30:27.631Z,32.17
2022-12-03T08:33:30.079Z,36.40
2022-12-03T08:36:32.846Z,32.42
2022-12-03T08:39:35.719Z,34.95
2022-12-03T08:42:43.402Z,28.65
2022-12-03T08:45:42.504Z,32.70
2022-12-03T08:48:43.999Z,34.28
2022-12-03T08:51:42.427Z,39.08
2022-12-03T08:54:39.399Z,37.45
2022-12-03T08:57:36.470Z,39.45
2022-12-03T09:00:33.394Z,38.85
2022-12-03T09:03:31.914Z,37.70
2022-12-03T09:06:28.821Z,35.97
2022-12-03T09:09:26.566Z,36.10
2022-12-03T09:12:23.425Z,33.10
2022-12-03T09:15:20.331Z,33.58
2022-12-03T09:18:17.142Z,32.85
2022-12-03T09:21:14.029Z,34.90
2022-12-03T09:24:10.896Z,35.28
2022-12-03T09:27:07.753Z,30.48
2022-12-03T09:30:05.960Z,34.33
2022-12-03T09:33:02.854Z,35.30
2022-12-03T09:35:59.997Z,30.63
2022-12-03T09:38:58.058Z,33.20
2022-12-03T09:41:55.744Z,36.08
2022-12-03T09:44:53.238Z,44.67
2022-12-03T09:47:50.901Z,67.35
2022-12-03T09:50:48.920Z,41.90
2022-12-03T09:53:47.231Z,55.38
2022-12-03T09:56:44.155Z,38.40
2022-12-03T09:59:41.097Z,33.42
2022-12-03T10:02:42.230Z,39.22
2022-12-03T10:05:43.822Z,30.15
2022-12-03T10:08:48.679Z,40.50
2022-12-03T10:11:45.566Z,31.58
2022-12-03T10:14:42.960Z,41.38
2022-12-03T10:17:40.257Z,52.28
2022-12-03T10:20:37.096Z,52.05
2022-12-03T10:23:33.958Z,58.17
2022-12-03T10:26:40.788Z,47.13
2022-12-03T10:29:37.689Z,26.05
2022-12-03T10:32:51.019Z,31.67
2022-12-03T10:35:48.362Z,33.60
2022-12-03T10:38:45.711Z,30.83
2022-12-03T10:41:44.599Z,27.50
2022-12-03T10:44:41.417Z,33.05
2022-12-03T10:47:38.395Z,35.85
2022-12-03T10:50:36.254Z,41.47
2022-12-03T10:53:38.849Z,37.65
2022-12-03T10:56:36.322Z,26.25
2022-12-03T10:59:34.991Z,34.15
2022-12-03T11:02:31.860Z,39.05
2022-12-03T11:05:28.718Z,45.33
2022-12-03T11:08:31.326Z,41.25
2022-12-03T11:11:30.765Z,41.65
2022-12-03T11:14:56.422Z,34.33
2022-12-03T11:17:54.025Z,38.88
2022-12-03T11:21:02.397Z,38.72
2022-12-03T11:23:59.099Z,32.20
2022-12-03T11:26:55.820Z,32.58
2022-12-03T11:29:57.660Z,35.50
2022-12-03T11:32:57.557Z,36.95
2022-12-03T11:36:03.279Z,43.08
2022-12-03T11:39:00.192Z,34.00
2022-12-03T11:42:30.831Z,39.60
2022-12-03T11:45:39.823Z,34.28
2022-12-03T11:48:45.751Z,37.55
2022-12-03T11:51:44.700Z,33.38
2022-12-03T11:54:41.743Z,35.47
2022-12-03T11:57:39.894Z,27.95
2022-12-03T12:00:36.819Z,31.45
2022-12-03T12:03:36.161Z,35.15
2022-12-03T12:06:47.462Z,33.20
2022-12-03T12:09:55.234Z,31.52
2022-12-03T12:12:55.141Z,39.83
2022-12-03T12:15:53.039Z,33.67
2022-12-03T12:18:55.053Z,35.35
2022-12-03T12:21:53.248Z,35.17
2022-12-03T12:25:03.481Z,28.05
2022-12-03T12:28:00.331Z,34.88
2022-12-03T12:30:57.290Z,29.23
2022-12-03T12:33:54.166Z,37.17
2022-12-03T12:36:52.378Z,30.73
2022-12-03T12:39:56.273Z,31.05
2022-12-03T12:43:03.012Z,26.92
2022-12-03T12:46:46.057Z,23.95
2022-12-03T12:49:30.630Z,27.85
2022-12-03T12:52:28.031Z,23.10
2022-12-03T12:55:25.019Z,23.40
2022-12-03T12:58:22.331Z,25.80
2022-12-03T13:01:28.509Z,19.75
2022-12-03T13:04:30.161Z,19.98
2022-12-03T13:07:27.041Z,22.75
2022-12-03T13:10:37.466Z,22.05
2022-12-03T13:13:44.464Z,24.55
2022-12-03T13:16:42.252Z,20.90
2022-12-03T13:19:48.227Z,23.92
2022-12-03T13:22:46.100Z,24.00
2022-12-03T13:26:06.397Z,19.45
2022-12-03T13:29:06.728Z,36.83
2022-12-03T13:32:27.848Z,23.42
2022-12-03T13:35:39.560Z,23.67
2022-12-03T13:38:36.486Z,31.98
2022-12-03T13:41:52.361Z,21.17
2022-12-03T13:44:49.987Z,17.70
2022-12-03T13:47:54.923Z,26.80
2022-12-03T13:50:53.218Z,21.70
2022-12-03T13:53:50.216Z,42.92
2022-12-03T13:56:47.863Z,24.77
2022-12-03T13:59:44.721Z,20.58
2022-12-03T14:02:41.706Z,36.00
2022-12-03T14:05:38.760Z,20.23
2022-12-03T14:08:35.623Z,24.70
2022-12-03T14:11:50.809Z,22.92
2022-12-03T14:14:47.657Z,25.55
2022-12-03T14:17:44.533Z,32.90
2022-12-03T14:20:41.407Z,83.70
2022-12-03T14:23:38.321Z,42.70
2022-12-03T14:26:35.191Z,28.30
2022-12-03T14:29:32.044Z,120.18
2022-12-03T14:32:28.938Z,46.75
2022-12-03T14:35:25.989Z,56.30
2022-12-03T14:38:22.835Z,37.00
2022-12-03T14:41:38.038Z,35.88
2022-12-03T14:44:34.911Z,34.03
2022-12-03T14:47:32.155Z,37.17
2022-12-03T14:50:28.993Z,84.30
2022-12-03T14:53:27.602Z,104.40
2022-12-03T14:56:24.714Z,86.47
2022-12-03T14:59:27.224Z,41.72
2022-12-03T15:02:24.971Z,163.38
2022-12-03T15:05:27.971Z,85.80
2022-12-03T15:08:25.555Z,35.60
2022-12-03T15:11:22.500Z,183.23
2022-12-03T15:14:19.396Z,157.48
2022-12-03T15:17:16.295Z,169.52
2022-12-03T15:20:13.521Z,65.85
2022-12-03T15:23:14.281Z,34.47
2022-12-03T15:26:11.719Z,25.27
2022-12-03T15:29:08.608Z,25.88
2022-12-03T15:32:05.858Z,27.90
2022-12-03T15:35:02.676Z,74.47
2022-12-03T15:38:00.432Z,30.27
2022-12-03T15:41:20.614Z,129.98
2022-12-03T15:44:20.569Z,207.45
2022-12-03T15:47:20.129Z,56.47
2022-12-03T15:50:17.362Z,26.15
2022-12-03T15:53:14.369Z,65.47
2022-12-03T15:56:12.154Z,72.28
2022-12-03T15:59:09.033Z,54.88
2022-12-03T16:02:06.640Z,67.95
2022-12-03T16:05:07.626Z,43.10
2022-12-03T16:08:04.826Z,35.88
2022-12-03T16:11:01.912Z,115.57
2022-12-03T16:13:58.743Z,92.07
2022-12-03T16:16:55.919Z,35.33
2022-12-03T16:19:53.117Z,68.40
2022-12-03T16:22:51.198Z,35.03
2022-12-03T16:25:48.230Z,40.05
2022-12-03T16:28:45.229Z,32.30
2022-12-03T16:31:42.255Z,38.85
2022-12-03T16:34:39.120Z,31.23
2022-12-03T16:37:36.081Z,38.85
2022-12-03T16:40:33.046Z,27.15
2022-12-03T16:43:30.046Z,31.48
2022-12-03T16:46:27.000Z,31.52
2022-12-03T16:49:24.023Z,34.10
2022-12-03T16:52:20.978Z,37.35
2022-12-03T16:55:17.866Z,49.50
2022-12-03T16:58:14.877Z,38.08
2022-12-03T17:01:12.618Z,31.13
2022-12-03T17:04:09.536Z,39.33
2022-12-03T17:07:06.493Z,30.92
2022-12-03T17:10:04.694Z,36.75
2022-12-03T17:13:09.458Z,30.85
2022-12-03T17:16:07.174Z,32.42
2022-12-03T17:19:04.060Z,30.35
2022-12-03T17:22:01.050Z,28.75
2022-12-03T17:24:57.866Z,25.58
2022-12-03T17:27:55.084Z,25.50
2022-12-03T17:30:51.967Z,27.40
2022-12-03T17:33:48.822Z,28.25
2022-12-03T17:36:45.674Z,27.10
2022-12-03T17:39:42.504Z,26.77
2022-12-03T17:42:39.361Z,26.52
2022-12-03T17:45:36.852Z,25.42
2022-12-03T17:48:34.435Z,28.08
2022-12-03T17:51:31.465Z,29.77
2022-12-03T17:54:49.094Z,26.83
2022-12-03T17:57:45.282Z,41.75
2022-12-03T18:00:42.335Z,29.40
2022-12-03T18:03:39.341Z,28.02
2022-12-03T18:06:39.285Z,37.42
2022-12-03T18:09:36.475Z,35.85
2022-12-03T18:12:34.320Z,29.50
2022-12-03T18:15:32.165Z,29.75
2022-12-03T18:18:29.113Z,30.83
2022-12-03T18:21:28.363Z,34.17
2022-12-03T18:24:25.961Z,30.52
2022-12-03T18:27:23.550Z,27.77
2022-12-03T18:30:20.621Z,34.58
2022-12-03T18:33:17.476Z,28.17
2022-12-03T18:36:24.339Z,25.95
2022-12-03T18:39:27.906Z,38.05
2022-12-03T18:42:25.362Z,33.33
2022-12-03T18:45:22.231Z,31.83
2022-12-03T18:48:20.368Z,28.15
2022-12-03T18:51:22.021Z,30.42
2022-12-03T18:54:18.885Z,26.90
2022-12-03T18:57:15.965Z,41.28
2022-12-03T19:00:14.188Z,31.85
2022-12-03T19:03:11.662Z,31.75
2022-12-03T19:06:28.554Z,29.17
2022-12-03T19:09:25.427Z,31.55
2022-12-03T19:12:22.639Z,41.05
2022-12-03T19:15:19.884Z,53.35
2022-12-03T19:18:16.887Z,27.63
2022-12-03T19:21:16.374Z,28.17
2022-12-03T19:24:28.536Z,55.40
2022-12-03T19:27:25.379Z,29.02
2022-12-03T19:30:22.330Z,26.50
2022-12-03T19:33:22.562Z,31.95
2022-12-03T19:36:28.220Z,26.98
2022-12-03T19:39:25.063Z,35.53
2022-12-03T19:42:22.220Z,40.40
2022-12-03T19:45:21.452Z,31.73
2022-12-03T19:48:18.466Z,29.02
2022-12-03T19:51:33.734Z,21.35
2022-12-03T19:54:31.882Z,26.08
2022-12-03T19:57:28.857Z,27.60
2022-12-03T20:00:25.760Z,25.88
2022-12-03T20:03:22.642Z,33.67
2022-12-03T20:06:24.190Z,32.45
2022-12-03T20:09:22.540Z,23.10
2022-12-03T20:12:19.518Z,52.33
2022-12-03T20:15:16.604Z,63.85
2022-12-03T20:18:13.490Z,34.20
2022-12-03T20:21:12.653Z,30.20
2022-12-03T20:24:16.065Z,60.35
2022-12-03T20:27:12.983Z,42.40
2022-12-03T20:30:11.352Z,29.92
2022-12-03T20:33:08.315Z,35.33
2022-12-03T20:36:05.930Z,44.60
2022-12-03T20:39:06.870Z,47.08
2022-12-03T20:42:03.940Z,40.55
2022-12-03T20:45:00.870Z,28.88
2022-12-03T20:47:57.777Z,31.02
2022-12-03T20:50:54.705Z,35.50
2022-12-03T20:53:52.237Z,32.25
2022-12-03T20:56:49.854Z,31.90
2022-12-03T20:59:46.678Z,27.42
2022-12-03T21:02:43.559Z,24.35
2022-12-03T21:05:41.582Z,27.25
2022-12-03T21:08:41.904Z,22.50
2022-12-03T21:11:42.267Z,27.10
2022-12-03T21:14:39.147Z,28.90
2022-12-03T21:17:36.125Z,28.52
2022-12-03T21:20:33.458Z,25.77
2022-12-03T21:23:34.469Z,26.60
2022-12-03T21:26:31.463Z,23.77
2022-12-03T21:29:28.389Z,24.52
2022-12-03T21:32:25.326Z,26.95
2022-12-03T21:35:22.416Z,23.67
2022-12-03T21:38:19.249Z,22.08
2022-12-03T21:41:17.233Z,24.63
2022-12-03T21:44:14.060Z,23.27
2022-12-03T21:47:14.172Z,24.25
2022-12-03T21:53:09.142Z,26.58
2022-12-03T21:56:13.049Z,24.33
2022-12-03T21:59:09.891Z,29.42
2022-12-03T22:02:07.183Z,28.63
2022-12-03T22:05:04.693Z,23.20
2022-12-03T22:08:01.604Z,21.42
2022-12-03T22:10:58.482Z,25.00
2022-12-03T22:13:57.037Z,24.30
2022-12-03T22:16:53.880Z,22.27
2022-12-03T22:19:50.721Z,23.55
2022-12-03T22:22:47.583Z,23.58
2022-12-03T22:25:44.611Z,26.60
2022-12-03T22:28:46.480Z,28.05
2022-12-03T22:31:43.360Z,27.85
2022-12-03T22:34:42.243Z,26.65
2022-12-03T22:37:39.085Z,26.85
2022-12-03T22:40:39.565Z,23.77
2022-12-03T22:43:39.135Z,26.77
2022-12-03T22:46:36.143Z,25.95
2022-12-03T22:49:33.066Z,28.25
2022-12-03T22:52:30.503Z,27.55
2022-12-03T22:55:27.349Z,33.15
2022-12-03T22:58:25.418Z,27.60
2022-12-03T23:01:27.112Z,25.65
2022-12-03T23:04:23.930Z,24.08
2022-12-03T23:07:20.786Z,27.85
2022-12-03T23:10:18.193Z,25.10
2022-12-03T23:13:15.533Z,24.80
2022-12-03T23:16:23.256Z,26.55
2022-12-03T23:19:20.150Z,21.20
2022-12-03T23:22:17.455Z,25.77
2022-12-03T23:25:15.415Z,24.42
2022-12-03T23:28:12.538Z,23.85
2022-12-03T23:31:19.707Z,28.15
2022-12-03T23:34:16.596Z,26.67
2022-12-03T23:37:13.475Z,23.17
2022-12-03T23:40:11.890Z,26.35
2022-12-03T23:43:08.795Z,24.23
2022-12-03T23:46:09.314Z,22.83
2022-12-03T23:52:02.987Z,21.80
2022-12-03T23:54:59.866Z,25.33
2022-12-03T23:57:56.721Z,28.48
